Time;durP1;ratioP1;P1;durP2;ratioP2;P2;SDS_P1;SDS_P2;PMS_P1;PMS_P2;Temp;Humidity;BMP_temperature;BMP_pressure;BME280_temperature;BME280_humidity;BME280_pressure;Samples;Min_cycle;Max_cycle;Signal;HPM_P1;HPM_P2
2023/02/23 00:01:27;;;;;;;51.43;33.83;;;;;;;;;;4973031;28;20437;-47
2023/02/23 00:03:56;;;;;;;50.10;33.30;;;;;;;;;;4973288;28;20420;-48
2023/02/23 00:06:24;;;;;;;53.90;34.23;;;;;;;;;;4973075;28;20773;-48
2023/02/23 00:08:51;;;;;;;55.30;36.87;;;;;;;;;;4973269;28;20428;-46
2023/02/23 00:11:17;;;;;;;58.60;39.30;;;;;;;;;;4972963;28;20441;-47
2023/02/23 00:13:45;;;;;;;61.50;38.20;;;;;;;;;;4973117;28;20513;-48
2023/02/23 00:16:15;;;;;;;56.20;35.97;;;;;;;;;;4973216;28;20906;-45
2023/02/23 00:18:49;;;;;;;56.33;35.40;;;;;;;;;;4976644;28;20487;-47
2023/02/23 00:21:17;;;;;;;60.20;39.30;;;;;;;;;;4972607;28;20468;-45
2023/02/23 00:23:44;;;;;;;62.77;38.40;;;;;;;;;;4972756;28;20409;-48
2023/02/23 00:26:12;;;;;;;63.30;39.20;;;;;;;;;;4973063;28;20417;-47
2023/02/23 00:28:39;;;;;;;63.20;39.33;;;;;;;;;;4972906;28;20420;-48
2023/02/23 00:31:05;;;;;;;64.30;39.67;;;;;;;;;;4972722;28;20963;-47
2023/02/23 00:33:31;;;;;;;64.00;41.00;;;;;;;;;;4972614;28;20429;-48
2023/02/23 00:36:03;;;;;;;64.97;39.40;;;;;;;;;;4973527;28;20495;-49
2023/02/23 00:38:33;;;;;;;69.90;40.50;;;;;;;;;;4972962;28;20800;-47
2023/02/23 00:40:59;;;;;;;66.97;41.03;;;;;;;;;;4973069;28;20422;-48
2023/02/23 00:43:27;;;;;;;64.50;38.23;;;;;;;;;;4972689;28;20424;-48
2023/02/23 00:45:55;;;;;;;65.43;38.40;;;;;;;;;;4972846;28;20413;-45
2023/02/23 00:48:21;;;;;;;69.67;42.27;;;;;;;;;;4972752;28;20475;-48
2023/02/23 00:50:49;;;;;;;66.83;41.70;;;;;;;;;;4972872;28;20961;-45
2023/02/23 00:53:15;;;;;;;69.53;41.93;;;;;;;;;;4972611;28;20810;-46
2023/02/23 00:55:41;;;;;;;65.20;39.97;;;;;;;;;;4977640;28;20420;-47
2023/02/23 00:58:08;;;;;;;65.93;42.17;;;;;;;;;;4972875;28;20515;-47
2023/02/23 01:00:41;;;;;;;71.40;41.33;;;;;;;;;;4972593;28;20447;-47
2023/02/23 01:03:07;;;;;;;72.13;43.27;;;;;;;;;;4969185;28;20448;-47
2023/02/23 01:05:36;;;;;;;70.00;44.77;;;;;;;;;;4973288;28;20906;-47
2023/02/23 01:08:08;;;;;;;74.10;43.37;;;;;;;;;;4972899;28;20416;-49
2023/02/23 01:10:35;;;;;;;78.87;43.97;;;;;;;;;;4972705;28;20436;-49
2023/02/23 01:13:01;;;;;;;77.70;46.00;;;;;;;;;;4972253;28;20444;-48
2023/02/23 01:15:27;;;;;;;75.93;44.10;;;;;;;;;;4972803;28;20499;-47
2023/02/23 01:17:53;;;;;;;72.87;45.90;;;;;;;;;;4978534;28;20880;-47
2023/02/23 01:20:19;;;;;;;74.70;44.47;;;;;;;;;;4973237;28;20425;-49
2023/02/23 01:22:47;;;;;;;72.83;44.90;;;;;;;;;;4972838;28;20793;-46
2023/02/23 01:25:13;;;;;;;76.87;44.70;;;;;;;;;;4972929;28;20430;-46
2023/02/23 01:27:43;;;;;;;79.27;47.60;;;;;;;;;;4972525;28;20776;-47
2023/02/23 01:30:09;;;;;;;78.40;46.20;;;;;;;;;;4972467;28;20810;-46
2023/02/23 01:32:37;;;;;;;77.30;44.70;;;;;;;;;;4972389;28;20893;-47
2023/02/23 01:35:04;;;;;;;83.03;44.60;;;;;;;;;;4976748;28;20448;-47
2023/02/23 01:37:31;;;;;;;80.63;46.80;;;;;;;;;;4976938;28;20464;-44
2023/02/23 01:39:57;;;;;;;72.87;44.43;;;;;;;;;;4975761;28;20946;-43
2023/02/23 01:42:24;;;;;;;83.37;44.97;;;;;;;;;;4975309;28;20443;-42
2023/02/23 01:44:53;;;;;;;79.80;45.80;;;;;;;;;;4975716;28;20471;-43
2023/02/23 01:47:19;;;;;;;79.13;44.50;;;;;;;;;;4975023;28;20471;-46
2023/02/23 01:49:46;;;;;;;75.77;45.13;;;;;;;;;;4975173;28;20429;-43
2023/02/23 01:52:14;;;;;;;74.13;42.77;;;;;;;;;;4975240;28;20400;-43
2023/02/23 01:54:43;;;;;;;78.97;42.70;;;;;;;;;;4975507;28;20440;-44
2023/02/23 01:57:11;;;;;;;79.00;44.47;;;;;;;;;;4975443;28;20460;-43
2023/02/23 01:59:39;;;;;;;71.60;42.33;;;;;;;;;;4970940;28;20417;-43
2023/02/23 02:02:05;;;;;;;80.37;46.80;;;;;;;;;;4974552;28;20520;-43
2023/02/23 02:04:37;;;;;;;66.33;41.03;;;;;;;;;;4975175;28;20941;-43
2023/02/23 02:07:03;;;;;;;83.80;47.10;;;;;;;;;;4975208;28;20420;-45
2023/02/23 02:09:36;;;;;;;82.20;45.63;;;;;;;;;;4974970;28;20413;-43
2023/02/23 02:12:07;;;;;;;81.70;45.40;;;;;;;;;;4974952;28;20436;-43
2023/02/23 02:14:33;;;;;;;74.17;44.67;;;;;;;;;;4975276;28;20431;-42
2023/02/23 02:17:15;;;;;;;80.10;44.50;;;;;;;;;;4970367;28;20484;-43
2023/02/23 02:20:00;;;;;;;74.10;42.50;;;;;;;;;;4974348;28;20408;-46
2023/02/23 02:22:38;;;;;;;71.57;41.93;;;;;;;;;;4975025;28;20818;-45
2023/02/23 02:25:13;;;;;;;84.30;45.03;;;;;;;;;;4974208;28;20421;-45
2023/02/23 02:27:57;;;;;;;75.27;43.17;;;;;;;;;;4980013;28;20795;-42
2023/02/23 02:30:41;;;;;;;80.47;47.37;;;;;;;;;;4972876;28;20834;-44
2023/02/23 02:33:10;;;;;;;78.43;43.67;;;;;;;;;;4974459;28;20492;-43
2023/02/23 02:35:45;;;;;;;85.93;45.30;;;;;;;;;;4974776;28;20464;-43
2023/02/23 02:38:30;;;;;;;77.87;45.73;;;;;;;;;;4974729;28;20468;-45
2023/02/23 02:41:03;;;;;;;93.40;47.73;;;;;;;;;;4974636;28;20501;-43
2023/02/23 02:43:32;;;;;;;82.93;45.40;;;;;;;;;;4974347;28;20900;-43
2023/02/23 02:46:27;;;;;;;83.53;45.60;;;;;;;;;;4974057;28;20459;-44
2023/02/23 02:48:56;;;;;;;88.13;45.20;;;;;;;;;;4959936;28;20505;-43
2023/02/23 02:51:41;;;;;;;81.73;46.03;;;;;;;;;;4974348;28;20437;-43
2023/02/23 02:54:17;;;;;;;87.23;46.47;;;;;;;;;;4974425;28;20499;-43
2023/02/23 02:56:44;;;;;;;86.00;45.80;;;;;;;;;;4967480;28;20445;-43
2023/02/23 04:19:30;;;;;;;80.00;46.57;;;;;;;;;;4972903;28;20465;-45
2023/02/23 04:21:56;;;;;;;87.67;43.63;;;;;;;;;;4972735;28;20788;-43
2023/02/23 04:24:22;;;;;;;82.80;44.77;;;;;;;;;;4973068;28;20428;-43
2023/02/23 04:26:48;;;;;;;92.63;47.73;;;;;;;;;;4972712;28;20409;-43
2023/02/23 04:29:14;;;;;;;83.73;44.77;;;;;;;;;;4972675;28;20496;-44
2023/02/23 04:31:40;;;;;;;82.30;45.67;;;;;;;;;;4972657;28;20437;-43
2023/02/23 04:34:07;;;;;;;75.53;45.67;;;;;;;;;;4972758;28;20408;-43
2023/02/23 04:36:33;;;;;;;93.07;45.87;;;;;;;;;;4972808;28;20445;-43
2023/02/23 04:39:00;;;;;;;81.57;44.80;;;;;;;;;;4972598;28;21006;-44
2023/02/23 04:41:26;;;;;;;78.30;43.37;;;;;;;;;;4972254;28;20527;-47
2023/02/23 04:43:52;;;;;;;84.10;44.00;;;;;;;;;;4972703;28;20416;-42
2023/02/23 04:46:18;;;;;;;77.20;44.70;;;;;;;;;;4972704;28;20453;-42
2023/02/23 04:48:45;;;;;;;74.63;44.30;;;;;;;;;;4972572;28;20417;-43
2023/02/23 04:51:11;;;;;;;83.03;44.90;;;;;;;;;;4972516;28;20436;-44
2023/02/23 04:53:38;;;;;;;84.77;44.60;;;;;;;;;;4972552;28;20413;-43
2023/02/23 04:56:04;;;;;;;78.03;43.80;;;;;;;;;;4972468;28;20425;-43
2023/02/23 04:58:30;;;;;;;83.27;47.37;;;;;;;;;;4972458;28;20510;-44
2023/02/23 05:01:03;;;;;;;72.90;42.67;;;;;;;;;;4972443;28;20464;-44
2023/02/23 05:03:29;;;;;;;71.20;41.80;;;;;;;;;;4972363;28;20422;-43
2023/02/23 05:05:55;;;;;;;67.17;41.97;;;;;;;;;;4972683;28;20911;-43
2023/02/23 05:08:21;;;;;;;81.43;43.30;;;;;;;;;;4973624;28;20776;-45
2023/02/23 05:10:47;;;;;;;77.50;43.07;;;;;;;;;;4976195;28;20467;-44
2023/02/23 05:13:13;;;;;;;70.17;42.87;;;;;;;;;;4976017;28;20436;-45
2023/02/23 05:15:38;;;;;;;85.27;45.17;;;;;;;;;;4976150;28;20423;-45
2023/02/23 05:18:06;;;;;;;86.70;46.73;;;;;;;;;;4975578;28;20469;-45
2023/02/23 05:20:32;;;;;;;80.77;45.57;;;;;;;;;;4980385;28;20425;-44
2023/02/23 05:22:58;;;;;;;80.33;44.13;;;;;;;;;;4976051;28;20416;-45
2023/02/23 05:25:24;;;;;;;79.90;45.90;;;;;;;;;;4976080;28;20996;-45
2023/02/23 05:27:50;;;;;;;80.27;44.37;;;;;;;;;;4976058;28;20404;-45
2023/02/23 05:30:16;;;;;;;78.67;41.80;;;;;;;;;;4975703;28;20456;-45
2023/02/23 05:32:42;;;;;;;95.07;46.30;;;;;;;;;;4975944;28;20413;-45
2023/02/23 05:35:09;;;;;;;74.10;43.20;;;;;;;;;;4976168;28;20424;-45
2023/02/23 05:37:35;;;;;;;68.87;41.70;;;;;;;;;;4975745;28;20539;-44
2023/02/23 05:40:01;;;;;;;78.33;44.63;;;;;;;;;;4975822;28;20455;-45
2023/02/23 05:42:27;;;;;;;77.07;40.93;;;;;;;;;;4975597;28;20413;-45
2023/02/23 05:44:53;;;;;;;76.27;43.30;;;;;;;;;;4976095;28;20401;-45
2023/02/23 05:47:19;;;;;;;81.77;42.97;;;;;;;;;;4975747;28;20479;-45
2023/02/23 05:49:45;;;;;;;84.57;44.00;;;;;;;;;;4975563;28;20420;-45
2023/02/23 05:52:11;;;;;;;86.10;43.67;;;;;;;;;;4975288;28;20941;-45
2023/02/23 05:54:37;;;;;;;85.20;43.80;;;;;;;;;;4976629;28;20412;-44
2023/02/23 05:57:03;;;;;;;87.60;45.33;;;;;;;;;;4979914;28;20452;-44
2023/02/23 05:59:29;;;;;;;82.77;41.87;;;;;;;;;;4975274;28;20982;-45
2023/02/23 06:01:55;;;;;;;86.80;43.33;;;;;;;;;;4975302;28;20468;-42
2023/02/23 06:04:22;;;;;;;88.97;44.67;;;;;;;;;;4975434;28;20885;-43
2023/02/23 06:06:48;;;;;;;93.23;44.73;;;;;;;;;;4975785;28;20885;-42
2023/02/23 06:09:13;;;;;;;89.43;44.33;;;;;;;;;;4975169;28;20469;-43
2023/02/23 06:11:39;;;;;;;89.97;42.27;;;;;;;;;;4975091;28;20964;-43
2023/02/23 06:14:05;;;;;;;97.80;43.53;;;;;;;;;;4975154;28;20811;-43
2023/02/23 06:16:31;;;;;;;120.33;44.23;;;;;;;;;;4975432;28;20874;-43
2023/02/23 06:18:57;;;;;;;110.97;43.90;;;;;;;;;;4975233;28;20885;-43
2023/02/23 06:21:24;;;;;;;102.97;45.80;;;;;;;;;;4973812;28;20799;-42
2023/02/23 06:23:50;;;;;;;98.90;43.60;;;;;;;;;;4975081;28;20448;-42
2023/02/23 06:26:16;;;;;;;93.93;43.30;;;;;;;;;;4975002;28;20405;-43
2023/02/23 06:28:42;;;;;;;95.33;45.00;;;;;;;;;;4975221;28;20456;-43
2023/02/23 06:31:08;;;;;;;91.80;42.90;;;;;;;;;;4974814;28;20476;-43
2023/02/23 06:33:34;;;;;;;87.97;42.00;;;;;;;;;;4974644;28;20507;-42
2023/02/23 06:36:00;;;;;;;88.97;42.40;;;;;;;;;;4974864;28;20434;-42
2023/02/23 06:38:26;;;;;;;90.80;42.60;;;;;;;;;;4974700;28;20806;-42
2023/02/23 06:40:52;;;;;;;85.37;41.33;;;;;;;;;;4974527;28;20425;-42
2023/02/23 06:43:18;;;;;;;86.87;42.43;;;;;;;;;;4974430;28;20471;-42
2023/02/23 06:45:46;;;;;;;97.07;42.60;;;;;;;;;;4974748;28;20420;-42
2023/02/23 06:48:12;;;;;;;83.53;39.50;;;;;;;;;;4974760;28;20500;-42
2023/02/23 06:50:37;;;;;;;83.70;42.03;;;;;;;;;;4974449;28;20469;-42
2023/02/23 06:53:04;;;;;;;93.53;42.80;;;;;;;;;;4974231;28;20439;-42
2023/02/23 06:55:30;;;;;;;85.87;40.97;;;;;;;;;;4974312;28;20421;-42
2023/02/23 06:57:56;;;;;;;87.37;41.33;;;;;;;;;;4974339;28;20475;-42
2023/02/23 07:00:22;;;;;;;100.20;45.07;;;;;;;;;;4974194;28;20439;-43
2023/02/23 07:02:48;;;;;;;86.00;41.10;;;;;;;;;;4974216;28;20409;-42
2023/02/23 07:05:14;;;;;;;92.03;42.87;;;;;;;;;;4974227;28;20507;-42
2023/02/23 07:07:40;;;;;;;91.63;44.17;;;;;;;;;;4974207;28;20417;-42
2023/02/23 07:10:06;;;;;;;89.73;44.80;;;;;;;;;;4973959;28;20510;-42
2023/02/23 07:12:32;;;;;;;94.70;45.90;;;;;;;;;;4973720;28;20427;-42
2023/02/23 07:14:58;;;;;;;98.90;46.80;;;;;;;;;;4974175;28;20422;-43
2023/02/23 07:17:24;;;;;;;96.87;44.30;;;;;;;;;;4974044;28;20468;-42
2023/02/23 07:19:50;;;;;;;97.13;44.10;;;;;;;;;;4973885;28;20940;-42
2023/02/23 07:22:16;;;;;;;97.77;44.33;;;;;;;;;;4973807;28;20876;-43
2023/02/23 07:24:42;;;;;;;96.70;46.30;;;;;;;;;;4973781;28;20747;-43
2023/02/23 07:27:08;;;;;;;96.67;45.73;;;;;;;;;;4973919;28;20759;-43
2023/02/23 07:29:34;;;;;;;98.03;45.80;;;;;;;;;;4973862;28;21019;-43
2023/02/23 07:32:00;;;;;;;96.53;46.03;;;;;;;;;;4973287;28;20976;-42
2023/02/23 07:34:25;;;;;;;109.00;48.10;;;;;;;;;;4973618;28;20445;-42
2023/02/23 07:36:51;;;;;;;100.03;48.63;;;;;;;;;;4973110;28;20400;-42
2023/02/23 07:39:18;;;;;;;103.43;50.43;;;;;;;;;;4973032;28;20854;-42
2023/02/23 07:41:44;;;;;;;108.93;52.43;;;;;;;;;;4972750;28;20470;-42
2023/02/23 07:44:10;;;;;;;113.73;50.77;;;;;;;;;;4973024;28;20409;-42
2023/02/23 07:46:36;;;;;;;115.93;53.37;;;;;;;;;;4973154;28;20420;-42
2023/02/23 07:49:02;;;;;;;110.60;52.30;;;;;;;;;;4972986;28;20445;-42
2023/02/23 07:51:28;;;;;;;107.20;52.20;;;;;;;;;;4972734;28;20459;-42
2023/02/23 07:53:54;;;;;;;117.47;53.70;;;;;;;;;;4972706;28;20917;-42
2023/02/23 07:56:20;;;;;;;105.43;50.33;;;;;;;;;;4972812;28;20817;-42
2023/02/23 07:58:46;;;;;;;105.10;48.13;;;;;;;;;;4972703;28;20461;-42
2023/02/23 08:01:13;;;;;;;113.07;52.27;;;;;;;;;;4972566;28;20503;-42
2023/02/23 08:03:39;;;;;;;112.50;50.13;;;;;;;;;;4972725;28;20419;-42
2023/02/23 08:06:05;;;;;;;120.27;53.40;;;;;;;;;;4972680;28;20424;-42
2023/02/23 08:08:34;;;;;;;101.60;50.03;;;;;;;;;;4972365;28;20924;-42
2023/02/23 08:11:00;;;;;;;107.40;50.43;;;;;;;;;;4972808;28;20813;-42
2023/02/23 08:13:26;;;;;;;115.90;53.17;;;;;;;;;;4972311;28;20870;-42
2023/02/23 08:15:52;;;;;;;122.43;54.83;;;;;;;;;;4972467;28;20439;-42
2023/02/23 08:18:18;;;;;;;120.37;55.60;;;;;;;;;;4972761;28;20452;-42
2023/02/23 08:20:44;;;;;;;118.47;56.07;;;;;;;;;;4974337;28;20527;-42
2023/02/23 08:23:10;;;;;;;110.23;51.90;;;;;;;;;;4972112;28;20421;-42
2023/02/23 08:25:36;;;;;;;109.23;54.47;;;;;;;;;;4972489;28;20417;-42
2023/02/23 08:28:05;;;;;;;118.03;52.93;;;;;;;;;;4972380;28;20483;-42
2023/02/23 08:30:31;;;;;;;119.10;52.00;;;;;;;;;;4972920;28;20436;-42
2023/02/23 08:32:57;;;;;;;113.63;51.83;;;;;;;;;;4972622;28;20794;-42
2023/02/23 08:35:23;;;;;;;105.70;52.73;;;;;;;;;;4972753;28;20413;-42
2023/02/23 08:37:49;;;;;;;105.30;50.37;;;;;;;;;;4972629;28;20486;-41
2023/02/23 08:40:17;;;;;;;103.90;48.90;;;;;;;;;;4972571;28;20440;-42
2023/02/23 08:42:43;;;;;;;111.57;50.73;;;;;;;;;;4971975;28;20487;-42
2023/02/23 08:45:09;;;;;;;103.97;49.23;;;;;;;;;;4975846;28;20927;-42
2023/02/23 08:47:35;;;;;;;95.60;48.20;;;;;;;;;;4976534;28;20793;-42
2023/02/23 08:50:01;;;;;;;93.30;48.90;;;;;;;;;;4974644;28;20507;-42
2023/02/23 08:52:28;;;;;;;95.10;47.73;;;;;;;;;;4973372;28;20500;-42
2023/02/23 08:54:55;;;;;;;98.70;46.90;;;;;;;;;;4972679;28;20413;-42
2023/02/23 08:57:21;;;;;;;93.97;44.97;;;;;;;;;;4972499;28;20515;-42
2023/02/23 08:59:47;;;;;;;90.23;46.73;;;;;;;;;;4972456;28;20495;-42
2023/02/23 09:02:13;;;;;;;89.10;46.90;;;;;;;;;;4972214;28;20511;-42
2023/02/23 09:04:42;;;;;;;84.40;43.90;;;;;;;;;;4972412;28;20925;-42
2023/02/23 09:07:10;;;;;;;73.87;39.43;;;;;;;;;;4972464;28;20425;-42
2023/02/23 09:09:37;;;;;;;74.10;39.17;;;;;;;;;;4964509;28;20416;-42
2023/02/23 09:12:03;;;;;;;72.47;40.87;;;;;;;;;;4972151;28;20487;-42
2023/02/23 09:14:29;;;;;;;78.50;41.00;;;;;;;;;;4972400;28;20497;-42
2023/02/23 09:16:55;;;;;;;73.03;38.00;;;;;;;;;;4972385;28;20419;-42
2023/02/23 09:19:21;;;;;;;74.80;37.53;;;;;;;;;;4972637;28;20412;-42
2023/02/23 09:21:47;;;;;;;71.60;36.90;;;;;;;;;;4972515;28;20434;-42
2023/02/23 09:24:13;;;;;;;72.47;37.40;;;;;;;;;;4972320;28;20423;-42
2023/02/23 09:26:38;;;;;;;77.27;38.87;;;;;;;;;;4972515;28;20917;-42
2023/02/23 09:29:06;;;;;;;86.00;39.67;;;;;;;;;;4972287;28;20781;-42
2023/02/23 09:31:32;;;;;;;85.63;39.47;;;;;;;;;;4971972;28;20798;-42
2023/02/23 09:34:01;;;;;;;78.63;38.90;;;;;;;;;;4970944;28;20409;-42
2023/02/23 09:36:28;;;;;;;74.37;37.47;;;;;;;;;;4971555;28;20428;-42
2023/02/23 09:38:56;;;;;;;76.43;37.27;;;;;;;;;;4972153;28;21066;-42
2023/02/23 09:41:33;;;;;;;77.90;37.63;;;;;;;;;;4971952;28;20458;-42
2023/02/23 09:44:08;;;;;;;80.30;38.77;;;;;;;;;;4972245;28;20451;-43
2023/02/23 09:46:48;;;;;;;81.67;39.10;;;;;;;;;;4972203;28;20780;-42
2023/02/23 09:49:16;;;;;;;78.00;38.70;;;;;;;;;;4976306;28;20533;-42
2023/02/23 09:51:47;;;;;;;73.50;36.83;;;;;;;;;;4970649;28;20914;-42
2023/02/23 09:54:13;;;;;;;69.57;36.00;;;;;;;;;;4971690;28;20434;-42
2023/02/23 09:56:43;;;;;;;78.67;37.60;;;;;;;;;;4974937;28;20923;-42
2023/02/23 09:59:16;;;;;;;72.60;37.73;;;;;;;;;;4971785;28;20468;-42
2023/02/23 10:01:48;;;;;;;75.87;37.77;;;;;;;;;;4974204;28;20444;-42
2023/02/23 10:04:20;;;;;;;74.57;34.37;;;;;;;;;;4975291;28;20425;-43
2023/02/23 10:06:50;;;;;;;67.53;32.50;;;;;;;;;;4975457;28;20953;-42
2023/02/23 10:09:21;;;;;;;62.47;32.23;;;;;;;;;;4974980;28;20417;-42
2023/02/23 10:12:16;;;;;;;63.33;34.80;;;;;;;;;;4975387;28;20654;-42
2023/02/23 10:14:42;;;;;;;63.27;31.67;;;;;;;;;;4932475;28;20788;-42
2023/02/23 10:17:14;;;;;;;61.83;34.00;;;;;;;;;;4975255;28;20413;-43
2023/02/23 10:19:43;;;;;;;68.57;31.10;;;;;;;;;;4967018;28;20459;-42
2023/02/23 10:22:10;;;;;;;62.83;31.20;;;;;;;;;;4972283;28;20435;-42
2023/02/23 10:24:37;;;;;;;64.90;31.57;;;;;;;;;;4967119;28;20397;-42
2023/02/23 10:27:29;;;;;;;58.17;29.93;;;;;;;;;;4975192;28;20464;-42
2023/02/23 10:29:57;;;;;;;57.77;29.70;;;;;;;;;;4969874;28;20793;-42
2023/02/23 10:32:32;;;;;;;61.97;29.83;;;;;;;;;;4974256;28;20409;-42
2023/02/23 10:34:59;;;;;;;61.70;29.27;;;;;;;;;;4974836;28;20455;-42
2023/02/23 10:37:25;;;;;;;71.47;33.63;;;;;;;;;;4974746;28;20479;-42
2023/02/23 10:39:51;;;;;;;60.27;30.60;;;;;;;;;;4974578;28;20753;-43
2023/02/23 10:42:22;;;;;;;72.17;34.50;;;;;;;;;;4974979;28;20441;-42
2023/02/23 10:44:48;;;;;;;71.27;33.80;;;;;;;;;;4974538;28;20463;-42
2023/02/23 10:47:20;;;;;;;72.10;34.47;;;;;;;;;;4974552;28;20772;-42
2023/02/23 10:49:53;;;;;;;63.30;30.00;;;;;;;;;;4974489;28;20417;-42
2023/02/23 10:52:22;;;;;;;70.03;34.20;;;;;;;;;;4974319;28;20430;-42
2023/02/23 10:54:49;;;;;;;73.73;35.27;;;;;;;;;;4976911;28;20423;-42
2023/02/23 10:57:32;;;;;;;74.37;35.63;;;;;;;;;;4979562;28;20460;-42
2023/02/23 11:00:16;;;;;;;65.40;33.63;;;;;;;;;;4974399;28;20801;-42
2023/02/23 11:02:43;;;;;;;62.80;32.50;;;;;;;;;;4973999;28;20455;-42
2023/02/23 11:05:33;;;;;;;67.97;33.10;;;;;;;;;;4974361;28;20416;-42
2023/02/23 11:08:21;;;;;;;65.50;32.60;;;;;;;;;;4973618;28;20467;-42
2023/02/23 11:11:05;;;;;;;59.27;29.90;;;;;;;;;;4974123;28;20992;-42
2023/02/23 11:13:34;;;;;;;52.93;30.00;;;;;;;;;;4973735;28;20443;-42
2023/02/23 11:16:08;;;;;;;62.30;32.60;;;;;;;;;;4973857;28;20440;-42
2023/02/23 11:18:34;;;;;;;66.63;33.30;;;;;;;;;;4976537;28;20475;-42
2023/02/23 11:21:01;;;;;;;65.43;31.40;;;;;;;;;;4981678;28;20467;-42
2023/02/23 11:23:34;;;;;;;59.50;31.97;;;;;;;;;;4973687;28;20405;-42
2023/02/23 11:26:01;;;;;;;57.77;30.90;;;;;;;;;;4974073;28;20431;-42
2023/02/23 11:28:30;;;;;;;64.13;31.23;;;;;;;;;;4973623;28;20920;-42
2023/02/23 11:31:02;;;;;;;58.97;30.73;;;;;;;;;;4973752;28;20529;-43
2023/02/23 11:33:32;;;;;;;60.17;30.00;;;;;;;;;;4973548;28;20494;-42
2023/02/23 11:35:59;;;;;;;74.93;32.67;;;;;;;;;;4973983;28;20415;-42
2023/02/23 11:38:26;;;;;;;66.23;33.57;;;;;;;;;;4973579;28;20463;-42
2023/02/23 11:41:06;;;;;;;68.30;32.40;;;;;;;;;;4973484;28;20440;-42
2023/02/23 11:43:32;;;;;;;62.37;29.77;;;;;;;;;;4973201;28;20467;-42
2023/02/23 11:46:00;;;;;;;62.13;30.20;;;;;;;;;;4973285;28;20408;-42
2023/02/23 11:48:33;;;;;;;67.10;31.97;;;;;;;;;;4972295;28;20500;-42
2023/02/23 11:51:00;;;;;;;64.53;29.40;;;;;;;;;;4974286;28;20444;-42
2023/02/23 11:53:27;;;;;;;66.37;31.23;;;;;;;;;;4972985;28;20478;-42
2023/02/23 11:55:54;;;;;;;71.70;30.70;;;;;;;;;;4973714;28;20439;-42
2023/02/23 11:58:26;;;;;;;64.57;29.37;;;;;;;;;;4969432;28;20479;-42
2023/02/23 12:00:56;;;;;;;72.90;31.13;;;;;;;;;;4972735;28;20440;-42
2023/02/23 12:03:29;;;;;;;64.00;30.50;;;;;;;;;;4972333;28;20412;-42
2023/02/23 12:05:57;;;;;;;64.57;30.43;;;;;;;;;;4970891;28;20425;-42
2023/02/23 12:08:33;;;;;;;66.17;31.07;;;;;;;;;;4972611;28;20420;-42
2023/02/23 12:11:01;;;;;;;68.57;31.40;;;;;;;;;;4972540;28;20530;-42
2023/02/23 12:13:35;;;;;;;74.50;32.43;;;;;;;;;;4972387;28;20437;-42
2023/02/23 12:16:07;;;;;;;72.00;31.30;;;;;;;;;;4972444;28;20427;-43
2023/02/23 12:18:39;;;;;;;75.20;30.47;;;;;;;;;;4971474;28;20499;-43
2023/02/23 12:21:14;;;;;;;74.20;29.37;;;;;;;;;;4974138;28;20440;-42
2023/02/23 12:23:42;;;;;;;72.63;29.93;;;;;;;;;;4964909;28;20498;-42
2023/02/23 12:26:21;;;;;;;65.60;31.20;;;;;;;;;;4972459;28;20483;-43
2023/02/23 12:28:59;;;;;;;67.33;30.30;;;;;;;;;;4965548;28;20467;-42
2023/02/23 12:31:34;;;;;;;63.70;30.20;;;;;;;;;;4972476;28;20804;-42
2023/02/23 12:34:02;;;;;;;63.17;27.90;;;;;;;;;;4972327;28;20463;-42
2023/02/23 12:36:39;;;;;;;67.20;29.63;;;;;;;;;;4972521;28;20419;-42
2023/02/23 12:39:18;;;;;;;60.47;25.40;;;;;;;;;;4972183;28;20503;-42
2023/02/23 12:42:02;;;;;;;73.13;30.30;;;;;;;;;;4971978;28;20434;-42
2023/02/23 12:44:31;;;;;;;71.20;29.70;;;;;;;;;;4971310;28;20409;-42
2023/02/23 12:47:02;;;;;;;66.87;29.10;;;;;;;;;;4973272;28;20496;-44
2023/02/23 12:49:36;;;;;;;60.20;27.30;;;;;;;;;;4973697;28;20428;-43
2023/02/23 12:52:07;;;;;;;56.10;23.70;;;;;;;;;;4973713;28;20442;-45
2023/02/23 12:54:33;;;;;;;50.57;22.70;;;;;;;;;;4972680;28;20500;-43
2023/02/23 12:57:02;;;;;;;42.63;20.87;;;;;;;;;;4976910;28;20401;-43
2023/02/23 12:59:41;;;;;;;40.90;20.27;;;;;;;;;;4972022;28;20426;-42
2023/02/23 13:02:29;;;;;;;38.80;18.43;;;;;;;;;;4971700;28;20495;-43
2023/02/23 13:04:55;;;;;;;39.73;18.23;;;;;;;;;;4966647;28;20411;-44
2023/02/23 13:07:21;;;;;;;36.93;17.77;;;;;;;;;;4972199;28;20977;-45
2023/02/23 13:10:05;;;;;;;38.47;18.00;;;;;;;;;;4971986;28;20847;-44
2023/02/23 13:12:39;;;;;;;36.53;17.93;;;;;;;;;;4971124;28;20414;-46
2023/02/23 13:15:17;;;;;;;39.53;16.77;;;;;;;;;;4971807;28;20430;-45
2023/02/23 13:17:58;;;;;;;39.93;19.63;;;;;;;;;;4964674;28;20796;-40
2023/02/23 13:20:33;;;;;;;42.70;18.83;;;;;;;;;;4969133;28;20466;-41
2023/02/23 13:23:08;;;;;;;42.57;19.63;;;;;;;;;;4971042;28;20414;-40
2023/02/23 13:25:55;;;;;;;34.90;17.77;;;;;;;;;;4972139;28;20933;-40
2023/02/23 13:28:31;;;;;;;41.67;20.47;;;;;;;;;;4972229;28;20514;-40
2023/02/23 13:30:57;;;;;;;61.30;27.50;;;;;;;;;;4975302;28;20454;-41
2023/02/23 13:33:30;;;;;;;69.93;32.17;;;;;;;;;;4974622;28;20431;-41
2023/02/23 13:35:56;;;;;;;57.17;26.70;;;;;;;;;;4975966;28;20414;-41
2023/02/23 13:38:39;;;;;;;55.20;24.93;;;;;;;;;;4975567;28;20462;-40
2023/02/23 13:41:14;;;;;;;49.20;22.50;;;;;;;;;;4975935;28;20505;-40
2023/02/23 13:43:49;;;;;;;49.57;22.80;;;;;;;;;;4976246;28;20973;-41
2023/02/23 13:46:24;;;;;;;50.90;21.40;;;;;;;;;;4975902;28;20391;-40
2023/02/23 13:48:50;;;;;;;43.90;20.23;;;;;;;;;;4974906;28;20411;-41
2023/02/23 13:51:29;;;;;;;44.50;21.20;;;;;;;;;;4975746;28;20438;-40
2023/02/23 13:53:59;;;;;;;52.03;21.27;;;;;;;;;;4975437;28;20890;-41
2023/02/23 13:56:30;;;;;;;44.60;20.17;;;;;;;;;;4978110;28;20418;-40
2023/02/23 13:59:00;;;;;;;46.47;18.60;;;;;;;;;;4975380;28;20478;-40
2023/02/23 14:01:30;;;;;;;55.60;22.47;;;;;;;;;;4974720;28;20477;-41
2023/02/23 14:03:58;;;;;;;45.53;21.43;;;;;;;;;;4987203;28;20768;-41
2023/02/23 14:06:25;;;;;;;52.93;22.63;;;;;;;;;;4977083;28;20497;-41
2023/02/23 14:08:59;;;;;;;43.97;19.43;;;;;;;;;;4975085;28;20424;-40
2023/02/23 14:11:42;;;;;;;50.67;21.57;;;;;;;;;;4975173;28;20450;-41
2023/02/23 14:14:11;;;;;;;49.07;20.10;;;;;;;;;;4975093;28;20920;-41
2023/02/23 14:16:37;;;;;;;43.50;20.20;;;;;;;;;;4975340;28;20473;-42
2023/02/23 14:19:21;;;;;;;42.00;18.33;;;;;;;;;;4984355;28;20539;-43
2023/02/23 14:21:55;;;;;;;45.63;20.50;;;;;;;;;;4980065;28;20526;-43
2023/02/23 14:24:22;;;;;;;46.93;18.27;;;;;;;;;;4975729;28;20760;-42
2023/02/23 14:27:07;;;;;;;36.27;16.53;;;;;;;;;;4976449;28;20447;-42
2023/02/23 14:29:40;;;;;;;41.50;19.03;;;;;;;;;;4974978;28;20904;-41
2023/02/23 14:32:12;;;;;;;35.50;17.37;;;;;;;;;;4975006;28;20438;-41
2023/02/23 14:34:44;;;;;;;42.70;17.20;;;;;;;;;;4974749;28;20915;-41
2023/02/23 14:37:24;;;;;;;34.23;17.43;;;;;;;;;;4974778;28;20939;-40
2023/02/23 14:39:51;;;;;;;36.47;16.57;;;;;;;;;;4974594;28;20440;-40
2023/02/23 14:42:21;;;;;;;36.97;15.33;;;;;;;;;;4973428;28;20407;-43
2023/02/23 14:44:50;;;;;;;34.47;16.37;;;;;;;;;;4974515;28;20955;-40
2023/02/23 14:47:17;;;;;;;32.70;14.30;;;;;;;;;;4974573;28;20888;-41
2023/02/23 14:49:45;;;;;;;33.03;16.47;;;;;;;;;;4974598;28;20420;-41
2023/02/23 14:52:25;;;;;;;36.17;15.97;;;;;;;;;;4974203;28;20436;-44
2023/02/23 14:54:51;;;;;;;35.90;16.23;;;;;;;;;;4977350;28;20814;-40
2023/02/23 14:57:19;;;;;;;35.67;16.70;;;;;;;;;;4986843;28;20424;-41
2023/02/23 14:59:50;;;;;;;35.03;16.23;;;;;;;;;;4975015;28;20517;-45
2023/02/23 15:02:18;;;;;;;37.73;17.33;;;;;;;;;;4974301;28;20397;-45
2023/02/23 15:04:45;;;;;;;33.90;16.07;;;;;;;;;;4974487;28;20416;-45
2023/02/23 15:07:17;;;;;;;35.33;16.30;;;;;;;;;;4974505;28;20499;-43
2023/02/23 15:09:43;;;;;;;34.63;14.97;;;;;;;;;;4974172;28;20818;-44
2023/02/23 15:12:17;;;;;;;35.20;16.50;;;;;;;;;;4973493;28;20532;-46
2023/02/23 15:14:43;;;;;;;33.90;16.47;;;;;;;;;;4977604;28;20412;-44
2023/02/23 15:17:14;;;;;;;36.17;15.67;;;;;;;;;;4984820;28;20498;-43
2023/02/23 15:19:41;;;;;;;35.80;16.13;;;;;;;;;;4973734;28;20471;-43
2023/02/23 15:22:07;;;;;;;33.77;15.90;;;;;;;;;;4973933;28;20451;-46
2023/02/23 15:24:40;;;;;;;37.90;16.90;;;;;;;;;;4973993;28;20494;-46
2023/02/23 15:27:14;;;;;;;30.43;15.30;;;;;;;;;;4974056;28;20418;-45
2023/02/23 15:29:40;;;;;;;31.30;14.00;;;;;;;;;;4973837;28;20407;-44
2023/02/23 15:32:13;;;;;;;34.93;16.40;;;;;;;;;;4973699;28;20491;-45
2023/02/23 15:34:40;;;;;;;39.47;15.97;;;;;;;;;;4974074;28;20523;-45
2023/02/23 15:37:10;;;;;;;34.00;14.00;;;;;;;;;;4973766;28;20419;-45
2023/02/23 15:39:36;;;;;;;36.70;15.53;;;;;;;;;;4973833;28;20430;-45
2023/02/23 15:42:03;;;;;;;38.57;15.67;;;;;;;;;;4973407;28;20439;-44
2023/02/23 15:44:33;;;;;;;35.10;14.70;;;;;;;;;;4973825;28;20459;-46
2023/02/23 15:47:01;;;;;;;44.30;17.67;;;;;;;;;;4973433;28;20396;-43
2023/02/23 15:49:29;;;;;;;38.90;16.30;;;;;;;;;;4973632;28;20947;-45